createdAt,value
2018-07-05T00:00:25.640Z,27.06
2018-07-05T00:01:25.605Z,27.05
2018-07-05T00:02:25.567Z,26.99
2018-07-05T00:03:25.531Z,26.96
2018-07-05T00:04:25.485Z,27.01
2018-07-05T00:05:25.446Z,27.01
2018-07-05T00:06:25.403Z,26.92
2018-07-05T00:07:25.366Z,27.02
2018-07-05T00:08:25.324Z,26.92
2018-07-05T00:09:25.287Z,27.04
2018-07-05T00:10:25.252Z,27.02
2018-07-05T00:11:25.213Z,26.96
2018-07-05T00:12:25.165Z,26.94
2018-07-05T00:13:25.130Z,26.96
2018-07-05T00:14:25.094Z,27.02
2018-07-05T00:15:25.049Z,26.96
2018-07-05T00:16:25.011Z,26.95
2018-07-05T00:17:24.973Z,26.95
2018-07-05T00:18:24.931Z,27.02
2018-07-05T00:19:24.893Z,26.99
2018-07-05T00:20:24.852Z,26.99
2018-07-05T00:21:24.813Z,26.99
2018-07-05T00:22:24.775Z,27.01
2018-07-05T00:23:24.736Z,27.01
2018-07-05T00:24:24.690Z,26.99
2018-07-05T00:25:24.656Z,27.02
2018-07-05T00:26:24.615Z,27.01
2018-07-05T00:27:24.576Z,27.01
2018-07-05T00:28:24.534Z,26.99
2018-07-05T00:29:24.497Z,26.96
2018-07-05T00:30:24.459Z,26.96
2018-07-05T00:31:24.418Z,27.01
2018-07-05T00:32:24.395Z,26.94
2018-07-05T00:33:24.341Z,27.01
2018-07-05T00:34:24.298Z,26.91
2018-07-05T00:35:24.260Z,26.99
2018-07-05T00:36:24.222Z,26.98
2018-07-05T00:37:24.187Z,26.95
2018-07-05T00:38:24.142Z,26.89
2018-07-05T00:39:24.103Z,26.96
2018-07-05T00:40:24.065Z,27.01
2018-07-05T00:41:24.020Z,26.98
2018-07-05T00:42:23.984Z,26.98
2018-07-05T00:43:23.949Z,26.99
2018-07-05T00:44:23.904Z,26.99
2018-07-05T00:45:23.866Z,26.98
2018-07-05T00:46:23.817Z,26.99
2018-07-05T00:47:23.792Z,26.96
2018-07-05T00:48:23.744Z,26.91
2018-07-05T00:49:23.705Z,26.99
2018-07-05T00:50:23.669Z,26.98
2018-07-05T00:51:23.633Z,26.99
2018-07-05T00:52:23.582Z,26.98
2018-07-05T00:53:23.550Z,26.94
2018-07-05T00:54:23.512Z,26.95
2018-07-05T00:55:23.470Z,26.98
2018-07-05T00:56:23.432Z,26.95
2018-07-05T00:57:23.390Z,26.96
2018-07-05T00:58:23.358Z,26.96
2018-07-05T00:59:23.310Z,26.94
2018-07-05T01:00:23.279Z,26.95
2018-07-05T01:01:23.240Z,26.95
2018-07-05T01:02:23.199Z,26.94
2018-07-05T01:03:23.161Z,26.94
2018-07-05T01:04:23.115Z,26.94
2018-07-05T01:05:23.078Z,26.94
2018-07-05T01:06:23.036Z,26.96
2018-07-05T01:07:22.998Z,26.94
2018-07-05T01:08:22.956Z,26.89
2018-07-05T01:09:22.918Z,26.96
2018-07-05T01:10:22.880Z,26.89
2018-07-05T01:11:22.842Z,26.89
2018-07-05T01:12:22.800Z,26.92
2018-07-05T01:13:22.759Z,26.91
2018-07-05T01:14:22.720Z,26.98
2018-07-05T01:15:22.681Z,26.95
2018-07-05T01:16:22.642Z,26.96
2018-07-05T01:17:22.600Z,26.94
2018-07-05T01:18:22.559Z,26.92
2018-07-05T01:19:22.524Z,26.92
2018-07-05T01:20:22.498Z,26.95
2018-07-05T01:21:22.445Z,26.92
2018-07-05T01:22:22.406Z,26.99
2018-07-05T01:23:22.374Z,26.99
2018-07-05T01:24:22.326Z,26.92
2018-07-05T01:25:22.289Z,26.95
2018-07-05T01:26:22.245Z,26.94
2018-07-05T01:27:22.210Z,26.89
2018-07-05T01:28:22.175Z,26.95
2018-07-05T01:29:22.252Z,26.95
2018-07-05T01:30:22.078Z,26.94
2018-07-05T01:31:22.049Z,26.94
2018-07-05T01:32:22.011Z,26.96
2018-07-05T01:33:21.969Z,26.96
2018-07-05T01:34:21.931Z,26.91
2018-07-05T01:35:21.888Z,26.92
2018-07-05T01:36:21.853Z,26.95
2018-07-05T01:37:21.812Z,26.94
2018-07-05T01:38:21.774Z,26.92
2018-07-05T01:39:21.736Z,26.92
2018-07-05T01:40:21.693Z,26.94
2018-07-05T01:41:21.651Z,26.89
2018-07-05T01:42:21.620Z,26.98
2018-07-05T01:43:21.572Z,26.98
2018-07-05T01:44:21.537Z,26.91
2018-07-05T01:45:21.498Z,26.94
2018-07-05T01:46:21.457Z,26.99
2018-07-05T01:47:21.417Z,26.94
2018-07-05T01:48:21.376Z,26.96
2018-07-05T01:49:21.336Z,26.91
2018-07-05T01:50:21.297Z,26.92
2018-07-05T01:51:21.272Z,26.84
2018-07-05T01:52:21.218Z,26.91
2018-07-05T01:53:21.179Z,26.95
2018-07-05T01:54:21.140Z,26.96
2018-07-05T01:55:21.099Z,26.96
2018-07-05T01:56:21.062Z,26.96
2018-07-05T01:57:21.023Z,26.96
2018-07-05T01:58:20.999Z,26.92
2018-07-05T01:59:20.952Z,26.89
2018-07-05T02:00:20.914Z,26.99
2018-07-05T02:01:20.870Z,26.91
2018-07-05T02:02:20.828Z,26.95
2018-07-05T02:03:20.787Z,26.92
2018-07-05T02:04:20.748Z,26.92
2018-07-05T02:05:20.708Z,26.92
2018-07-05T02:06:20.672Z,26.94
2018-07-05T02:07:20.618Z,26.87
2018-07-05T02:08:20.592Z,26.96
2018-07-05T02:09:20.566Z,26.91
2018-07-05T02:10:20.521Z,26.95
2018-07-05T02:11:20.474Z,26.95
2018-07-05T02:12:20.430Z,26.92
2018-07-05T02:13:20.394Z,26.91
2018-07-05T02:14:20.354Z,26.98
2018-07-05T02:15:20.309Z,26.89
2018-07-05T02:16:20.271Z,26.87
2018-07-05T02:17:20.233Z,26.87
2018-07-05T02:18:20.188Z,26.96
2018-07-05T02:19:20.159Z,26.96
2018-07-05T02:20:20.127Z,26.96
2018-07-05T02:21:20.084Z,26.94
2018-07-05T02:22:20.039Z,26.94
2018-07-05T02:23:19.995Z,26.89
2018-07-05T02:24:19.959Z,26.94
2018-07-05T02:25:19.918Z,26.83
2018-07-05T02:26:19.879Z,26.92
2018-07-05T02:27:19.836Z,26.98
2018-07-05T02:28:19.798Z,26.91
2018-07-05T02:29:19.760Z,26.96
2018-07-05T02:30:19.716Z,26.92
2018-07-05T02:31:19.692Z,26.95
2018-07-05T02:32:19.637Z,26.96
2018-07-05T02:33:19.608Z,26.92
2018-07-05T02:34:19.564Z,26.95
2018-07-05T02:35:19.525Z,26.95
2018-07-05T02:36:19.563Z,26.96
2018-07-05T02:37:19.445Z,26.92
2018-07-05T02:38:19.398Z,26.92
2018-07-05T02:39:19.365Z,26.95
2018-07-05T02:40:19.321Z,26.86
2018-07-05T02:41:19.285Z,26.92
2018-07-05T02:42:19.263Z,26.96
2018-07-05T02:43:19.215Z,26.87
2018-07-05T02:44:19.174Z,26.94
2018-07-05T02:45:19.135Z,26.94
2018-07-05T02:46:19.096Z,26.92
2018-07-05T02:47:19.050Z,26.87
2018-07-05T02:48:19.016Z,26.87
2018-07-05T02:49:18.967Z,26.89
2018-07-05T02:50:18.926Z,26.91
2018-07-05T02:51:18.886Z,26.89
2018-07-05T02:52:18.851Z,26.94
2018-07-05T02:53:18.823Z,26.95
2018-07-05T02:54:18.782Z,26.87
2018-07-05T02:55:18.735Z,26.92
2018-07-05T02:56:18.691Z,26.86
2018-07-05T02:57:18.659Z,26.87
2018-07-05T02:58:18.615Z,26.83
2018-07-05T02:59:18.576Z,26.91
2018-07-05T03:00:18.532Z,26.94
2018-07-05T03:01:18.495Z,26.84
2018-07-05T03:02:18.451Z,26.86
2018-07-05T03:03:18.413Z,26.79
2018-07-05T03:04:18.386Z,26.91
2018-07-05T03:05:18.343Z,26.87
2018-07-05T03:06:18.298Z,26.92
2018-07-05T03:07:18.258Z,26.91
2018-07-05T03:08:18.223Z,26.79
2018-07-05T03:09:18.177Z,26.84
2018-07-05T03:10:18.142Z,26.87
2018-07-05T03:11:18.098Z,26.86
2018-07-05T03:12:18.057Z,26.77
2018-07-05T03:13:18.018Z,26.74
2018-07-05T03:14:17.976Z,26.91
2018-07-05T03:15:17.938Z,26.84
2018-07-05T03:16:17.901Z,26.87
2018-07-05T03:17:17.860Z,26.84
2018-07-05T03:18:17.822Z,26.84
2018-07-05T03:19:17.783Z,26.89
2018-07-05T03:20:17.741Z,26.87
2018-07-05T03:21:17.701Z,26.87
2018-07-05T03:22:17.653Z,26.87
2018-07-05T03:23:17.624Z,26.87
2018-07-05T03:24:17.582Z,26.87
2018-07-05T03:25:17.547Z,26.80
2018-07-05T03:26:17.517Z,26.83
2018-07-05T03:27:17.466Z,26.77
2018-07-05T03:28:17.424Z,26.84
2018-07-05T03:29:17.383Z,26.80
2018-07-05T03:30:17.341Z,26.94
2018-07-05T03:31:17.308Z,26.80
2018-07-05T03:32:17.266Z,26.86
2018-07-05T03:33:17.228Z,26.81
2018-07-05T03:34:17.190Z,26.81
2018-07-05T03:35:17.148Z,26.76
2018-07-05T03:36:17.120Z,26.81
2018-07-05T03:37:17.068Z,26.79
2018-07-05T03:38:17.027Z,26.77
2018-07-05T03:39:16.994Z,26.73
2018-07-05T03:40:16.940Z,26.81
2018-07-05T03:41:16.915Z,26.79
2018-07-05T03:42:16.872Z,26.81
2018-07-05T03:43:16.835Z,26.81
2018-07-05T03:44:16.783Z,26.74
2018-07-05T03:45:16.754Z,26.81
2018-07-05T03:46:16.725Z,26.86
2018-07-05T03:47:16.683Z,26.84
2018-07-05T03:48:16.634Z,26.84
2018-07-05T03:49:16.593Z,26.76
2018-07-05T03:50:16.555Z,26.86
2018-07-05T03:51:16.516Z,26.73
2018-07-05T03:52:16.477Z,26.79
2018-07-05T03:53:16.435Z,26.73
2018-07-05T03:54:16.397Z,26.81
2018-07-05T03:55:16.358Z,26.80
2018-07-05T03:56:16.319Z,26.77
2018-07-05T03:57:16.288Z,26.76
2018-07-05T03:58:16.249Z,26.74
2018-07-05T03:59:16.202Z,26.69
2018-07-05T04:00:16.160Z,26.77
2018-07-05T04:01:16.119Z,26.77
2018-07-05T04:02:16.080Z,26.80
2018-07-05T04:03:16.046Z,26.76
2018-07-05T04:04:16.003Z,26.72
2018-07-05T04:05:15.961Z,26.73
2018-07-05T04:06:15.923Z,26.73
2018-07-05T04:07:15.884Z,26.77
2018-07-05T04:08:15.868Z,26.74
2018-07-05T04:09:15.816Z,26.76
2018-07-05T04:10:15.767Z,26.76
2018-07-05T04:11:15.718Z,26.81
2018-07-05T04:12:15.685Z,26.73
2018-07-05T04:13:15.634Z,26.73
2018-07-05T04:14:15.605Z,26.74
2018-07-05T04:15:15.563Z,26.68
2018-07-05T04:16:15.521Z,26.74
2018-07-05T04:17:15.488Z,26.74
2018-07-05T04:18:15.453Z,26.81
2018-07-05T04:19:15.414Z,26.77
2018-07-05T04:20:15.379Z,26.83
2018-07-05T04:21:15.324Z,26.77
2018-07-05T04:22:15.289Z,26.74
2018-07-05T04:23:15.249Z,26.74
2018-07-05T04:24:15.205Z,26.79
2018-07-05T04:25:15.167Z,26.73
2018-07-05T04:26:15.132Z,26.74
2018-07-05T04:27:15.089Z,26.72
2018-07-05T04:28:15.054Z,26.77
2018-07-05T04:29:15.006Z,26.73
2018-07-05T04:30:14.977Z,26.77
2018-07-05T04:31:14.935Z,26.73
2018-07-05T04:32:14.892Z,26.80
2018-07-05T04:33:14.856Z,26.76
2018-07-05T04:34:14.852Z,26.74
2018-07-05T04:35:14.768Z,26.69
2018-07-05T04:36:14.735Z,26.77
2018-07-05T04:37:14.690Z,26.77
2018-07-05T04:38:14.658Z,26.74
2018-07-05T04:39:14.610Z,26.79
2018-07-05T04:40:14.575Z,26.73
2018-07-05T04:41:14.543Z,26.73
2018-07-05T04:42:14.501Z,26.74
2018-07-05T04:43:14.460Z,26.77
2018-07-05T04:44:14.409Z,26.86
2018-07-05T04:45:14.373Z,26.81
2018-07-05T04:47:14.299Z,26.77
2018-07-05T04:48:14.260Z,26.74
2018-07-05T04:49:14.219Z,26.91
2018-07-05T04:50:14.177Z,26.86
2018-07-05T04:51:14.139Z,26.73
2018-07-05T04:52:14.105Z,26.86
2018-07-05T04:53:14.061Z,26.73
2018-07-05T04:54:14.022Z,26.73
2018-07-05T04:55:13.980Z,26.77
2018-07-05T04:56:13.943Z,26.80
2018-07-05T04:57:13.901Z,26.76
2018-07-05T04:58:13.871Z,26.73
2018-07-05T04:59:13.828Z,26.79
2018-07-05T05:00:13.789Z,26.79
2018-07-05T05:01:13.744Z,26.73
2018-07-05T05:02:13.703Z,26.73
2018-07-05T05:03:13.667Z,26.74
2018-07-05T05:05:13.589Z,26.79
2018-07-05T05:06:13.550Z,26.83
2018-07-05T05:07:13.507Z,26.77
2018-07-05T05:08:13.466Z,26.80
2018-07-05T05:09:13.425Z,26.84
2018-07-05T05:10:13.387Z,26.81
2018-07-05T05:11:13.348Z,26.81
2018-07-05T05:12:13.307Z,26.80
2018-07-05T05:13:13.269Z,26.80
2018-07-05T05:14:13.231Z,26.89
2018-07-05T05:15:13.186Z,26.81
2018-07-05T05:16:13.147Z,26.74
2018-07-05T05:17:13.112Z,26.77
2018-07-05T05:18:13.072Z,26.81
2018-07-05T05:19:13.031Z,26.79
2018-07-05T05:20:12.997Z,26.79
2018-07-05T05:21:12.951Z,26.80
2018-07-05T05:22:12.913Z,26.81
2018-07-05T05:23:12.877Z,26.79
2018-07-05T05:24:12.868Z,26.83
2018-07-05T05:25:12.793Z,26.86
2018-07-05T05:26:12.753Z,26.79
2018-07-05T05:27:12.715Z,26.79
2018-07-05T05:28:12.673Z,26.80
2018-07-05T05:29:12.631Z,26.84
2018-07-05T05:30:12.599Z,26.81
2018-07-05T05:31:12.554Z,26.77
2018-07-05T05:32:12.515Z,26.81
2018-07-05T05:33:12.478Z,26.81
2018-07-05T05:34:12.437Z,26.80
2018-07-05T05:35:12.399Z,26.84
2018-07-05T05:36:12.358Z,26.84
2018-07-05T05:37:12.316Z,26.89
2018-07-05T05:38:12.277Z,26.86
2018-07-05T05:39:12.231Z,26.81
2018-07-05T05:40:12.193Z,26.80
2018-07-05T05:41:12.159Z,26.87
2018-07-05T05:42:12.121Z,26.84
2018-07-05T05:43:12.110Z,26.87
2018-07-05T05:44:12.037Z,26.91
2018-07-05T05:45:11.999Z,26.80
2018-07-05T05:46:11.967Z,26.80
2018-07-05T05:47:11.940Z,26.83
2018-07-05T05:48:11.937Z,26.87
2018-07-05T05:49:11.845Z,26.79
2018-07-05T05:50:11.802Z,26.84
2018-07-05T05:51:11.761Z,26.83
2018-07-05T05:52:11.719Z,26.84
2018-07-05T05:53:11.683Z,26.87
2018-07-05T05:54:11.641Z,26.94
2018-07-05T05:55:11.603Z,26.94
2018-07-05T05:56:11.561Z,26.91
2018-07-05T05:57:11.523Z,26.83
2018-07-05T05:58:11.485Z,26.91
2018-07-05T05:59:11.447Z,26.83
2018-07-05T06:00:11.405Z,26.91
2018-07-05T06:01:11.367Z,26.81
2018-07-05T06:02:11.328Z,26.77
2018-07-05T06:03:11.286Z,26.87
2018-07-05T06:04:11.245Z,26.87
2018-07-05T06:05:11.205Z,26.87
2018-07-05T06:06:11.159Z,26.83
2018-07-05T06:07:11.120Z,26.84
2018-07-05T06:08:11.167Z,26.80
2018-07-05T06:09:11.048Z,26.81
2018-07-05T06:10:10.999Z,26.84
2018-07-05T06:11:10.968Z,26.80
2018-07-05T06:12:10.932Z,26.77
2018-07-05T06:13:10.892Z,26.84
2018-07-05T06:14:10.850Z,26.80
2018-07-05T06:15:10.814Z,26.86
2018-07-05T06:16:10.770Z,26.86
2018-07-05T06:17:10.735Z,26.94
2018-07-05T06:18:10.693Z,26.80
2018-07-05T06:19:10.654Z,26.94
2018-07-05T06:20:10.623Z,26.84
2018-07-05T06:21:10.567Z,26.83
2018-07-05T06:22:10.532Z,26.94
2018-07-05T06:23:10.498Z,26.95
2018-07-05T06:24:10.453Z,26.94
2018-07-05T06:25:10.418Z,26.92
2018-07-05T06:26:10.374Z,26.80
2018-07-05T06:27:10.338Z,26.91
2018-07-05T06:28:10.296Z,26.84
2018-07-05T06:29:10.539Z,26.79
2018-07-05T06:30:10.219Z,26.73
2018-07-05T06:31:10.245Z,26.72
2018-07-05T06:32:10.149Z,26.69
2018-07-05T06:33:10.099Z,26.69
2018-07-05T06:34:10.095Z,26.69
2018-07-05T06:35:10.017Z,26.59
2018-07-05T06:36:09.974Z,26.57
2018-07-05T06:37:09.939Z,26.57
2018-07-05T06:38:09.904Z,26.47
2018-07-05T06:39:09.859Z,26.40
2018-07-05T06:40:09.811Z,26.31
2018-07-05T06:41:09.782Z,26.21
2018-07-05T06:42:09.744Z,26.20
2018-07-05T06:43:09.700Z,26.12
2018-07-05T06:44:09.670Z,26.18
2018-07-05T06:45:09.622Z,26.17
2018-07-05T06:46:09.577Z,26.09
2018-07-05T06:47:09.536Z,26.15
2018-07-05T06:48:09.515Z,26.06
2018-07-05T06:49:09.471Z,26.09
2018-07-05T06:50:09.429Z,26.17
2018-07-05T06:51:09.549Z,26.12
2018-07-05T06:52:09.342Z,26.20
2018-07-05T06:53:09.367Z,26.15
2018-07-05T06:54:09.261Z,26.22
2018-07-05T06:55:09.404Z,26.24
2018-07-05T06:56:09.181Z,26.28
2018-07-05T06:57:09.152Z,26.25
2018-07-05T06:58:09.101Z,26.24
2018-07-05T06:59:09.126Z,26.36
2018-07-05T07:00:09.035Z,26.36
2018-07-05T07:01:08.974Z,26.25
2018-07-05T07:02:08.952Z,26.29
2018-07-05T07:03:08.903Z,26.32
2018-07-05T07:04:08.865Z,26.43
2018-07-05T07:05:08.820Z,26.39
2018-07-05T07:06:08.790Z,26.44
2018-07-05T07:07:08.750Z,26.36
2018-07-05T07:08:08.806Z,26.44
2018-07-05T07:09:08.661Z,26.40
2018-07-05T07:10:08.626Z,26.44
2018-07-05T07:11:08.574Z,26.46
2018-07-05T07:12:08.542Z,26.50
2018-07-05T07:13:08.505Z,26.49
2018-07-05T07:14:08.463Z,26.54
2018-07-05T07:15:08.431Z,26.50
2018-07-05T07:16:08.487Z,26.54
2018-07-05T07:17:08.341Z,26.54
2018-07-05T07:18:08.310Z,26.54
2018-07-05T07:19:08.267Z,26.59
2018-07-05T07:20:08.231Z,26.47
2018-07-05T07:21:08.183Z,26.62
2018-07-05T07:22:08.145Z,26.62
2018-07-05T07:23:08.109Z,26.58
2018-07-05T07:24:08.066Z,26.52
2018-07-05T07:25:08.024Z,26.57
2018-07-05T07:26:07.989Z,26.58
2018-07-05T07:27:07.947Z,26.58
2018-07-05T07:28:07.905Z,26.68
2018-07-05T07:29:07.866Z,26.68
2018-07-05T07:30:07.830Z,26.68
2018-07-05T07:31:07.787Z,26.68
2018-07-05T07:32:07.751Z,26.68
2018-07-05T07:33:07.716Z,26.69
2018-07-05T07:34:07.673Z,26.72
2018-07-05T07:35:07.625Z,26.72
2018-07-05T07:36:07.591Z,26.69
2018-07-05T07:37:07.551Z,26.64
2018-07-05T07:38:07.508Z,26.73
2018-07-05T07:39:07.469Z,26.74
2018-07-05T07:40:07.427Z,26.72
2018-07-05T07:41:07.393Z,26.68
2018-07-05T07:42:07.350Z,26.68
2018-07-05T07:43:07.312Z,26.72
2018-07-05T07:44:07.270Z,26.73
2018-07-05T07:45:07.232Z,26.72
2018-07-05T07:46:07.184Z,26.74
2018-07-05T07:47:07.162Z,26.73
2018-07-05T07:48:07.127Z,26.77
2018-07-05T07:49:07.071Z,26.74
2018-07-05T07:50:07.035Z,26.80
2018-07-05T07:51:06.988Z,26.69
2018-07-05T07:52:06.949Z,26.76
2018-07-05T07:53:06.914Z,26.77
2018-07-05T07:54:06.871Z,26.72
2018-07-05T07:55:06.833Z,26.76
2018-07-05T07:56:06.795Z,26.76
2018-07-05T07:57:06.752Z,26.72
2018-07-05T07:58:06.716Z,26.80
2018-07-05T07:59:06.673Z,26.77
2018-07-05T08:00:06.641Z,26.80
2018-07-05T08:01:06.593Z,26.77
2018-07-05T08:02:06.554Z,26.69
2018-07-05T08:03:06.535Z,26.80
2018-07-05T08:04:06.475Z,26.79
2018-07-05T08:05:06.438Z,26.79
2018-07-05T08:06:06.417Z,26.84
2018-07-05T08:07:06.353Z,26.77
2018-07-05T08:08:06.319Z,26.86
2018-07-05T08:09:06.280Z,26.77
2018-07-05T08:10:06.303Z,26.79
2018-07-05T08:11:06.196Z,26.80
2018-07-05T08:12:06.158Z,26.84
2018-07-05T08:13:06.113Z,26.84
2018-07-05T08:14:06.076Z,26.76
2018-07-05T08:15:06.071Z,26.80
2018-07-05T08:16:05.999Z,26.79
2018-07-05T08:17:05.954Z,26.80
2018-07-05T08:18:05.916Z,26.77
2018-07-05T08:19:05.880Z,26.76
2018-07-05T08:20:05.846Z,26.84
2018-07-05T08:21:05.801Z,26.77
2018-07-05T08:22:05.761Z,26.81
2018-07-05T08:23:05.719Z,26.91
2018-07-05T08:24:05.695Z,26.86
2018-07-05T08:25:05.640Z,26.87
2018-07-05T08:26:05.606Z,26.87
2018-07-05T08:27:05.599Z,26.87
2018-07-05T08:28:05.519Z,26.89
2018-07-05T08:29:05.479Z,26.84
2018-07-05T08:30:05.442Z,26.94
2018-07-05T08:31:05.403Z,26.86
2018-07-05T08:32:05.358Z,26.87
2018-07-05T08:33:05.322Z,26.92
2018-07-05T08:34:05.280Z,26.91
2018-07-05T08:35:05.242Z,26.89
2018-07-05T08:36:05.210Z,26.94
2018-07-05T08:37:05.162Z,26.89
2018-07-05T08:38:05.130Z,26.89
2018-07-05T08:39:05.082Z,26.87
2018-07-05T08:40:05.044Z,26.92
2018-07-05T08:41:05.001Z,26.95
2018-07-05T08:42:04.964Z,26.84
2018-07-05T08:43:04.928Z,26.92
2018-07-05T08:44:04.887Z,26.83
2018-07-05T08:45:04.845Z,26.83
2018-07-05T08:46:04.809Z,26.95
2018-07-05T08:47:04.769Z,26.86
2018-07-05T08:48:04.727Z,26.84
2018-07-05T08:49:04.703Z,26.89
2018-07-05T08:50:04.647Z,26.84
2018-07-05T08:51:04.649Z,26.84
2018-07-05T08:52:04.568Z,26.91
2018-07-05T08:53:04.530Z,26.95
2018-07-05T08:54:04.492Z,26.89
2018-07-05T08:55:04.446Z,26.95
2018-07-05T08:56:04.412Z,26.98
2018-07-05T08:57:04.376Z,26.89
2018-07-05T08:58:04.325Z,26.98
2018-07-05T08:59:04.291Z,26.95
2018-07-05T09:00:04.248Z,26.89
2018-07-05T09:01:04.219Z,26.92
2018-07-05T09:02:04.168Z,26.99
2018-07-05T09:03:04.130Z,26.91
2018-07-05T09:04:04.089Z,26.94
2018-07-05T09:05:04.051Z,26.94
2018-07-05T09:06:04.015Z,26.91
2018-07-05T09:07:03.970Z,26.96
2018-07-05T09:08:03.935Z,26.98
2018-07-05T09:09:03.892Z,26.89
2018-07-05T09:10:03.859Z,26.96
2018-07-05T09:11:03.829Z,26.92
2018-07-05T09:12:03.772Z,26.89
2018-07-05T09:13:03.734Z,26.96
2018-07-05T09:15:03.658Z,26.92
2018-07-05T09:16:03.613Z,26.91
2018-07-05T09:17:03.579Z,26.91
2018-07-05T09:18:03.553Z,26.94
2018-07-05T09:19:03.496Z,26.92
2018-07-05T09:20:03.457Z,26.94
2018-07-05T09:21:03.413Z,26.98
2018-07-05T09:22:03.410Z,26.95
2018-07-05T09:23:03.392Z,26.95
2018-07-05T09:24:03.296Z,26.94
2018-07-05T09:25:03.260Z,26.92
2018-07-05T09:26:03.215Z,26.96
2018-07-05T09:27:03.174Z,26.94
2018-07-05T09:28:03.136Z,26.95
2018-07-05T09:29:03.097Z,26.94
2018-07-05T09:30:03.060Z,26.89
2018-07-05T09:31:03.089Z,26.98
2018-07-05T09:32:02.975Z,26.95
2018-07-05T09:33:02.940Z,26.95
2018-07-05T09:34:02.896Z,26.98
2018-07-05T09:35:02.869Z,26.94
2018-07-05T09:36:02.813Z,26.98
2018-07-05T09:37:02.812Z,26.99
2018-07-05T09:38:02.746Z,26.98
2018-07-05T09:39:02.699Z,26.96
2018-07-05T09:40:02.657Z,27.01
2018-07-05T09:41:02.635Z,26.96
2018-07-05T09:42:02.573Z,26.95
2018-07-05T09:43:02.541Z,26.98
2018-07-05T09:44:02.499Z,26.89
2018-07-05T09:45:02.471Z,26.98
2018-07-05T09:46:02.423Z,26.92
2018-07-05T09:47:02.442Z,26.99
2018-07-05T09:48:02.342Z,26.94
2018-07-05T09:49:02.300Z,26.99
2018-07-05T09:50:02.263Z,27.01
2018-07-05T09:51:02.224Z,26.95
2018-07-05T09:52:02.182Z,26.92
2018-07-05T09:53:02.137Z,26.99
2018-07-05T09:54:02.109Z,27.01
2018-07-05T09:55:02.065Z,26.99
2018-07-05T09:56:02.021Z,26.94
2018-07-05T09:57:01.993Z,27.01
2018-07-05T09:58:01.987Z,26.92
2018-07-05T09:59:01.905Z,26.94
2018-07-05T10:00:01.868Z,26.99
2018-07-05T10:01:01.829Z,26.98
2018-07-05T10:02:01.785Z,26.95
2018-07-05T10:03:01.743Z,27.01
2018-07-05T10:04:01.704Z,27.02
2018-07-05T10:05:01.669Z,27.01
2018-07-05T10:06:01.628Z,26.99
2018-07-05T10:07:01.590Z,26.94
2018-07-05T10:08:01.544Z,27.01
2018-07-05T10:09:01.516Z,27.01
2018-07-05T10:10:01.470Z,26.99
2018-07-05T10:11:01.424Z,27.01
2018-07-05T10:12:01.385Z,27.02
2018-07-05T10:13:01.460Z,26.99
2018-07-05T10:14:01.312Z,27.05
2018-07-05T10:15:01.270Z,27.01
2018-07-05T10:16:01.226Z,26.99
2018-07-05T10:17:01.185Z,27.06
2018-07-05T10:18:01.149Z,26.96
2018-07-05T10:19:01.109Z,27.01
2018-07-05T10:20:01.071Z,27.09
2018-07-05T10:21:01.036Z,27.01
2018-07-05T10:22:00.988Z,27.04
2018-07-05T10:23:00.952Z,27.02
2018-07-05T10:24:00.910Z,27.01
2018-07-05T10:25:00.876Z,27.11
2018-07-05T10:26:00.831Z,27.02
2018-07-05T10:27:00.829Z,27.09
2018-07-05T10:28:00.752Z,27.06
2018-07-05T10:29:00.713Z,27.13
2018-07-05T10:30:00.666Z,26.96
2018-07-05T10:31:00.642Z,27.11
2018-07-05T10:32:00.594Z,26.99
2018-07-05T10:33:00.558Z,27.14
2018-07-05T10:34:00.515Z,26.99
2018-07-05T10:35:00.474Z,27.16
2018-07-05T10:36:00.433Z,27.14
2018-07-05T10:37:00.398Z,27.11
2018-07-05T10:38:00.353Z,27.09
2018-07-05T10:39:00.314Z,27.14
2018-07-05T10:40:00.272Z,27.17
2018-07-05T10:41:00.241Z,27.16
2018-07-05T10:42:00.205Z,27.14
2018-07-05T10:43:00.164Z,27.19
2018-07-05T10:44:00.135Z,27.09
2018-07-05T10:45:00.079Z,27.11
2018-07-05T10:46:00.053Z,27.06
2018-07-05T10:46:59.993Z,27.10
2018-07-05T10:47:59.960Z,27.17
2018-07-05T10:48:59.917Z,27.11
2018-07-05T10:49:59.874Z,27.09
2018-07-05T10:50:59.839Z,27.13
2018-07-05T10:51:59.798Z,27.10
2018-07-05T10:52:59.759Z,27.11
2018-07-05T10:53:59.732Z,27.13
2018-07-05T10:54:59.678Z,27.11
2018-07-05T10:55:59.637Z,27.10
2018-07-05T10:56:59.640Z,27.09
2018-07-05T10:57:59.563Z,27.13
2018-07-05T10:58:59.522Z,27.17
2018-07-05T10:59:59.483Z,27.01
2018-07-05T11:00:59.487Z,27.13
2018-07-05T11:01:59.400Z,27.11
2018-07-05T11:02:59.362Z,27.14
2018-07-05T11:03:59.323Z,27.13
2018-07-05T11:04:59.285Z,27.11
2018-07-05T11:05:59.244Z,27.10
2018-07-05T11:06:59.208Z,27.14
2018-07-05T11:07:59.154Z,27.09
2018-07-05T11:08:59.126Z,27.14
2018-07-05T11:09:59.084Z,27.16
2018-07-05T11:10:59.062Z,27.09
2018-07-05T11:11:59.004Z,27.23
2018-07-05T11:12:58.975Z,27.13
2018-07-05T11:13:58.924Z,27.13
2018-07-05T11:14:58.885Z,27.21
2018-07-05T11:15:58.851Z,27.20
2018-07-05T11:48:44.537Z,27.23
2018-07-05T11:49:44.464Z,27.26
2018-07-05T11:50:44.432Z,27.29
2018-07-05T11:51:44.394Z,27.31
2018-07-05T11:52:44.353Z,27.17
2018-07-05T11:53:44.319Z,27.26
2018-07-05T11:54:44.335Z,27.28
2018-07-05T11:55:44.237Z,27.20
2018-07-05T11:56:44.191Z,27.31
2018-07-05T11:57:44.157Z,27.26
2018-07-05T11:58:44.118Z,27.23
2018-07-05T11:59:44.077Z,27.21
2018-07-05T12:00:44.035Z,27.20
2018-07-05T12:01:43.994Z,27.26
2018-07-05T12:02:44.016Z,27.28
2018-07-05T12:03:43.920Z,27.24
2018-07-05T12:04:43.879Z,27.24
2018-07-05T12:05:43.833Z,27.29
2018-07-05T12:06:43.801Z,27.17
2018-07-05T12:07:43.753Z,27.32
2018-07-05T12:08:43.745Z,27.24
2018-07-05T12:09:43.675Z,27.23
2018-07-05T12:10:43.636Z,27.20
2018-07-05T12:11:43.598Z,27.24
2018-07-05T12:12:43.560Z,27.23
2018-07-05T12:13:43.530Z,27.23
2018-07-05T12:14:43.483Z,27.21
2018-07-05T12:15:43.441Z,27.24
2018-07-05T12:16:43.403Z,27.21
2018-07-05T12:17:43.361Z,27.14
2018-07-05T12:18:43.319Z,27.14
2018-07-05T12:19:43.281Z,27.21
2018-07-05T12:20:43.249Z,27.23
2018-07-05T12:21:43.198Z,27.23
2018-07-05T12:22:43.162Z,27.20
2018-07-05T12:23:43.122Z,27.21
2018-07-05T12:24:43.088Z,27.23
2018-07-05T12:25:43.043Z,27.26
2018-07-05T12:26:43.003Z,27.19
2018-07-05T12:27:42.960Z,27.13
2018-07-05T12:28:42.925Z,27.14
2018-07-05T12:29:42.885Z,27.26
2018-07-05T12:30:42.847Z,27.23
2018-07-05T12:31:42.802Z,27.23
2018-07-05T12:32:42.763Z,27.21
2018-07-05T12:33:42.726Z,27.23
2018-07-05T12:34:42.710Z,27.21
2018-07-05T12:35:42.650Z,27.24
2018-07-05T12:36:42.607Z,27.21
2018-07-05T12:37:42.569Z,27.20
2018-07-05T12:38:42.526Z,27.24
2018-07-05T12:39:42.488Z,27.13
2018-07-05T12:40:42.450Z,27.10
2018-07-05T12:41:42.411Z,27.11
2018-07-05T12:42:42.370Z,27.11
2018-07-05T12:43:42.332Z,27.16
2018-07-05T12:44:42.291Z,27.17
2018-07-05T12:45:42.250Z,27.16
2018-07-05T12:46:42.207Z,27.13
2018-07-05T12:47:42.170Z,27.11
2018-07-05T12:48:42.130Z,27.13
2018-07-05T12:49:42.090Z,27.11
2018-07-05T12:50:42.052Z,27.13
2018-07-05T12:51:42.010Z,27.04
2018-07-05T12:52:41.972Z,26.96
2018-07-05T12:53:41.933Z,27.04
2018-07-05T12:54:41.892Z,27.11
2018-07-05T12:55:41.855Z,26.99
2018-07-05T12:56:41.820Z,27.10
2018-07-05T12:57:41.772Z,27.11
2018-07-05T12:58:41.734Z,26.98
2018-07-05T12:59:41.689Z,27.02
2018-07-05T13:00:41.655Z,27.06
2018-07-05T13:01:41.610Z,27.02
2018-07-05T13:02:41.572Z,27.11
2018-07-05T13:03:41.530Z,27.14
2018-07-05T13:04:41.505Z,27.04
2018-07-05T13:05:41.469Z,27.04
2018-07-05T13:06:41.411Z,27.11
2018-07-05T13:07:41.379Z,27.13
2018-07-05T13:08:41.334Z,27.02
2018-07-05T13:09:41.300Z,27.10
2018-07-05T13:10:41.256Z,27.04
2018-07-05T13:11:41.218Z,27.01
2018-07-05T13:12:41.228Z,27.04
2018-07-05T13:13:41.144Z,27.02
2018-07-05T13:14:41.099Z,27.01
2018-07-05T13:15:41.060Z,27.06
2018-07-05T13:16:41.019Z,27.04
2018-07-05T13:17:40.981Z,27.05
2018-07-05T13:18:40.969Z,26.99
2018-07-05T13:19:40.900Z,27.02
2018-07-05T13:20:40.862Z,27.04
2018-07-05T13:21:40.820Z,26.99
2018-07-05T13:22:40.781Z,27.04
2018-07-05T13:23:40.740Z,27.01
2018-07-05T13:24:40.708Z,26.99
2018-07-05T13:25:40.660Z,26.96
2018-07-05T13:26:40.622Z,26.98